Terminal Aerodrome Forecast
Issued by NWS Pocatello, ID

Home | Current Version | Previous Version | Text Only | Print | Product List | Glossary On
Versions: 1 2 3 4 5 6 7 8 9 10 11 12 13
000
FTUS45 KPIH 192327
TAFIDA
TAF
KIDA 192327Z 2000/2024 21011KT P6SM FEW200
     FM200200 19010KT P6SM SCT100 BKN200 WS008/18035KT
     FM201700 22027G37KT P6SM -SHRA BKN015 OVC040
     FM202200 22030G40KT P6SM VCSH SCT020 OVC040=

USA.gov is the U.S. government's official web portal to all federal, state and local government web resources and services.